Time;durP1;ratioP1;P1;durP2;ratioP2;P2;SDS_P1;SDS_P2;PMS_P1;PMS_P2;Temp;Humidity;BMP_temperature;BMP_pressure;BME280_temperature;BME280_humidity;BME280_pressure;Samples;Min_cycle;Max_cycle;Signal;HPM_P1;HPM_P2
2022/08/24 00:02:12;;;;;;;7.82;5.13;;;;;;;16.92;100.00;94397.28;5089159;28;20244;-75
2022/08/24 00:04:39;;;;;;;8.82;4.55;;;;;;;16.83;100.00;94381.16;5089418;28;20263;-73
2022/08/24 00:07:08;;;;;;;11.40;3.92;;;;;;;16.81;100.00;94391.66;5089404;28;20210;-75
2022/08/24 00:09:35;;;;;;;6.80;4.38;;;;;;;16.80;100.00;94390.13;5088861;28;20255;-74
2022/08/24 00:12:04;;;;;;;8.40;5.28;;;;;;;16.85;100.00;94391.72;5089243;28;20205;-74
2022/08/24 00:14:31;;;;;;;7.28;4.75;;;;;;;16.84;100.00;94396.41;5089328;28;20309;-74
2022/08/24 00:16:59;;;;;;;8.23;4.55;;;;;;;16.79;100.00;94398.69;5088760;28;20639;-74
2022/08/24 00:19:27;;;;;;;8.10;5.07;;;;;;;16.66;100.00;94411.81;5089337;28;20236;-75
2022/08/24 00:21:54;;;;;;;8.35;4.10;;;;;;;16.64;100.00;94403.19;5089543;28;20255;-74
2022/08/24 00:24:22;;;;;;;8.10;5.13;;;;;;;16.63;100.00;94415.31;5089390;28;20996;-75
2022/08/24 00:26:50;;;;;;;10.02;5.85;;;;;;;16.60;100.00;94424.22;5088913;28;20198;-74
2022/08/24 00:29:18;;;;;;;8.18;5.47;;;;;;;16.66;100.00;94431.75;5089175;28;20202;-74
2022/08/24 00:31:45;;;;;;;10.27;6.35;;;;;;;16.68;100.00;94426.69;5089092;28;20210;-74
2022/08/24 00:34:13;;;;;;;9.25;5.22;;;;;;;16.68;100.00;94431.38;5089354;28;20194;-74
2022/08/24 00:36:40;;;;;;;11.48;6.50;;;;;;;16.69;100.00;94430.22;5089328;28;20203;-74
2022/08/24 00:39:08;;;;;;;11.20;5.80;;;;;;;16.64;100.00;94436.03;5089238;28;20252;-73
2022/08/24 00:41:41;;;;;;;13.00;5.72;;;;;;;16.73;100.00;94433.78;5089020;28;20599;-75
2022/08/24 00:44:08;;;;;;;10.27;6.35;;;;;;;16.70;100.00;94440.00;5089561;28;20190;-73
2022/08/24 00:46:43;;;;;;;10.77;6.57;;;;;;;16.73;100.00;94433.78;5089154;28;20615;-75
2022/08/24 00:49:14;;;;;;;11.27;6.70;;;;;;;16.73;100.00;94438.47;5089244;28;20198;-73
2022/08/24 00:51:46;;;;;;;12.40;6.97;;;;;;;16.65;100.00;94430.19;5089272;28;20210;-76
2022/08/24 00:54:17;;;;;;;11.93;6.80;;;;;;;16.69;100.00;94439.19;5089149;28;20706;-75
2022/08/24 00:56:48;;;;;;;15.40;7.57;;;;;;;16.76;100.00;94432.25;5087979;28;20229;-75
2022/08/24 00:59:21;;;;;;;17.10;7.18;;;;;;;16.87;100.00;94433.19;5091175;28;20225;-75
2022/08/24 01:01:49;;;;;;;16.50;8.88;;;;;;;16.90;100.00;94438.72;5079883;28;20217;-74
2022/08/24 01:04:21;;;;;;;20.33;8.93;;;;;;;16.91;100.00;94436.75;5093015;28;20198;-73
2022/08/24 01:06:48;;;;;;;21.55;9.82;;;;;;;17.01;100.00;94450.56;5093309;28;20194;-73
2022/08/24 01:09:15;;;;;;;22.70;11.75;;;;;;;17.10;100.00;94447.53;5092650;28;20306;-74
2022/08/24 01:12:52;;;;;;;24.83;12.32;;;;;;;17.26;100.00;94447.31;5119420;27;1548519;-74
2022/08/24 01:15:22;;;;;;;22.55;10.10;;;;;;;17.30;100.00;94448.94;5162450;27;20188;-73
2022/08/24 01:20:34;;;;;;;20.58;10.88;;;;;;;17.42;100.00;94456.13;5158044;27;20194;-74
2022/08/24 01:23:06;;;;;;;22.13;11.38;;;;;;;17.57;100.00;94460.59;5169875;27;20248;-74
2022/08/24 01:25:37;;;;;;;23.60;11.00;;;;;;;17.64;100.00;94463.41;5169892;27;20260;-74
2022/08/24 01:28:08;;;;;;;25.67;13.07;;;;;;;17.68;100.00;94464.25;5169772;27;20240;-74
2022/08/24 01:30:36;;;;;;;28.67;13.15;;;;;;;17.67;100.00;94465.41;5169345;27;20587;-73
2022/08/24 01:33:05;;;;;;;21.20;11.70;;;;;;;17.71;100.00;94468.97;5169352;27;20294;-73
2022/08/24 01:35:34;;;;;;;24.67;12.50;;;;;;;17.65;100.00;94461.47;5169545;27;20291;-74
2022/08/24 01:38:04;;;;;;;31.58;19.48;;;;;;;17.68;100.00;94471.66;5169180;27;20203;-74
2022/08/24 01:40:36;;;;;;;31.38;18.17;;;;;;;17.74;100.00;94468.22;5169592;27;20504;-75
2022/08/24 01:43:06;;;;;;;24.25;12.57;;;;;;;17.66;100.00;94472.03;5155742;27;20263;-75
2022/08/24 01:45:33;;;;;;;26.77;12.88;;;;;;;17.62;100.00;94475.91;5169649;27;20200;-75
2022/08/24 01:48:01;;;;;;;27.70;12.40;;;;;;;17.60;100.00;94470.78;5169249;27;20229;-74
2022/08/24 01:50:28;;;;;;;24.90;12.20;;;;;;;17.60;100.00;94468.06;5169674;27;20199;-75
2022/08/24 01:52:57;;;;;;;22.70;11.98;;;;;;;17.58;100.00;94464.13;5169099;27;20231;-73
2022/08/24 01:55:25;;;;;;;28.63;17.27;;;;;;;17.60;100.00;94465.31;5169018;27;20200;-73
2022/08/24 01:57:53;;;;;;;31.08;17.77;;;;;;;17.57;100.00;94460.59;5168612;27;20745;-74
2022/08/24 02:00:20;;;;;;;29.60;14.25;;;;;;;17.51;100.00;94464.81;5169023;27;20211;-74
2022/08/24 02:02:47;;;;;;;23.80;11.50;;;;;;;17.45;100.00;94466.31;5168888;27;20635;-74
2022/08/24 02:05:15;;;;;;;32.67;19.05;;;;;;;17.33;100.00;94472.84;5168640;27;20852;-75
2022/08/24 02:07:42;;;;;;;21.10;11.32;;;;;;;17.20;100.00;94474.25;5168916;27;20699;-74
2022/08/24 02:10:11;;;;;;;29.90;13.20;;;;;;;17.28;100.00;94469.66;5155027;27;20248;-74
2022/08/24 02:12:40;;;;;;;23.50;12.30;;;;;;;17.24;100.00;94474.28;5157562;27;20326;-73
2022/08/24 02:15:10;;;;;;;21.95;11.05;;;;;;;17.19;100.00;94488.31;5165546;27;20666;-75
2022/08/24 02:17:37;;;;;;;25.13;11.80;;;;;;;17.16;100.00;94492.59;5163750;27;20192;-75
2022/08/24 02:20:07;;;;;;;24.38;13.40;;;;;;;17.11;100.00;94492.91;5160217;27;20295;-75
2022/08/24 02:22:33;;;;;;;23.23;11.25;;;;;;;17.07;100.00;94492.09;5150029;27;20200;-75
2022/08/24 02:25:00;;;;;;;23.38;13.02;;;;;;;17.09;100.00;94495.22;5142321;27;20204;-75
2022/08/24 02:27:27;;;;;;;26.92;12.05;;;;;;;17.02;100.00;94501.41;5148094;27;20254;-75
2022/08/24 02:29:54;;;;;;;24.95;12.23;;;;;;;16.98;100.00;94499.78;5133465;27;20781;-75
2022/08/24 02:32:22;;;;;;;24.17;12.32;;;;;;;17.00;100.00;94497.47;5147064;27;20225;-75
2022/08/24 02:34:49;;;;;;;27.75;17.10;;;;;;;17.04;100.00;94504.56;5147374;27;20307;-75
2022/08/24 02:37:16;;;;;;;27.20;13.77;;;;;;;16.99;100.00;94499.41;5140465;27;20192;-75
2022/08/24 02:39:43;;;;;;;20.45;11.02;;;;;;;16.92;100.00;94507.53;5141149;27;20207;-75
2022/08/24 02:42:10;;;;;;;19.85;10.45;;;;;;;17.01;100.00;94505.31;5140942;27;20192;-75
2022/08/24 02:44:37;;;;;;;19.55;10.45;;;;;;;17.07;100.00;94505.00;5140024;27;20228;-75
2022/08/24 02:47:04;;;;;;;16.98;9.43;;;;;;;16.95;100.00;94506.78;5149146;27;20245;-75
2022/08/24 02:49:32;;;;;;;20.13;8.90;;;;;;;17.07;100.00;94497.56;5140210;27;20201;-75
2022/08/24 02:51:59;;;;;;;19.75;10.32;;;;;;;17.13;100.00;94500.75;5146038;27;20225;-75
2022/08/24 02:54:26;;;;;;;18.38;10.20;;;;;;;17.12;100.00;94505.44;5147223;27;20321;-75
2022/08/24 02:56:53;;;;;;;16.92;10.00;;;;;;;17.09;100.00;94499.91;5140772;27;20551;-75
2022/08/24 02:59:20;;;;;;;22.92;10.63;;;;;;;17.06;100.00;94501.47;5140427;27;20207;-75
2022/08/24 03:01:48;;;;;;;24.48;12.13;;;;;;;17.09;100.00;94502.63;5145431;27;20201;-75
2022/08/24 03:04:15;;;;;;;17.90;10.27;;;;;;;17.02;100.00;94506.88;5147256;27;20222;-75
2022/08/24 03:06:43;;;;;;;22.48;9.82;;;;;;;16.96;100.00;94502.88;5141672;27;20208;-75
2022/08/24 03:09:10;;;;;;;16.30;9.32;;;;;;;16.88;100.00;94495.75;5139895;27;20293;-75
2022/08/24 03:11:37;;;;;;;17.10;9.23;;;;;;;16.81;100.00;94497.59;5144368;27;20714;-75
2022/08/24 03:14:05;;;;;;;17.17;9.88;;;;;;;16.84;100.00;94500.38;5142485;27;20200;-75
2022/08/24 03:16:31;;;;;;;16.95;9.35;;;;;;;16.90;100.00;94498.91;5132168;27;20253;-75
2022/08/24 03:18:58;;;;;;;14.50;8.82;;;;;;;16.85;100.00;94501.94;5146852;27;20201;-75
2022/08/24 03:21:25;;;;;;;18.13;9.75;;;;;;;16.81;100.00;94503.84;5142512;27;20208;-75
2022/08/24 03:23:54;;;;;;;15.70;8.52;;;;;;;16.85;100.00;94501.94;5139234;27;20250;-75
2022/08/24 03:26:21;;;;;;;22.90;10.98;;;;;;;16.80;100.00;94499.56;5143164;27;20200;-75
2022/08/24 03:28:48;;;;;;;23.67;10.52;;;;;;;16.77;100.00;94508.50;5146302;27;20205;-75
2022/08/24 03:31:15;;;;;;;17.45;9.75;;;;;;;16.75;100.00;94508.06;5142847;27;20584;-75
2022/08/24 03:33:42;;;;;;;21.65;11.48;;;;;;;16.77;100.00;94505.75;5139784;27;20196;-74
2022/08/24 03:36:09;;;;;;;17.13;9.30;;;;;;;16.74;100.00;94505.69;5142325;27;20660;-75
2022/08/24 03:38:36;;;;;;;17.70;10.25;;;;;;;16.69;100.00;94515.00;5146711;27;20254;-75
2022/08/24 03:41:04;;;;;;;16.73;9.20;;;;;;;16.70;100.00;94508.38;5144109;27;20237;-75
2022/08/24 03:43:47;;;;;;;20.90;10.18;;;;;;;16.74;100.00;94514.69;5139806;27;20212;-75
2022/08/24 03:46:16;;;;;;;18.10;9.40;;;;;;;16.80;100.00;94515.97;5144067;27;20281;-75
2022/08/24 03:48:43;;;;;;;21.25;10.52;;;;;;;16.85;100.00;94518.38;5132317;27;20193;-75
2022/08/24 03:51:13;;;;;;;16.83;9.48;;;;;;;16.82;100.00;94521.84;5146522;27;20204;-75
2022/08/24 03:53:40;;;;;;;16.05;9.25;;;;;;;16.88;100.00;94523.09;5140223;27;20200;-72
2022/08/24 03:56:09;;;;;;;14.50;7.72;;;;;;;16.81;100.00;94523.00;5139077;27;20253;-75
2022/08/24 03:58:37;;;;;;;14.50;8.48;;;;;;;16.91;100.00;94527.84;5144878;27;20227;-74
2022/08/24 04:01:04;;;;;;;17.65;9.43;;;;;;;17.04;100.00;94531.94;5146920;27;20252;-74
2022/08/24 04:03:34;;;;;;;12.05;7.13;;;;;;;17.14;100.00;94524.22;5140936;27;20204;-74
2022/08/24 04:06:01;;;;;;;13.43;8.10;;;;;;;17.19;100.00;94524.69;5139190;27;20532;-74
2022/08/24 04:08:28;;;;;;;13.45;7.88;;;;;;;17.33;100.00;94521.34;5143583;27;20691;-74
2022/08/24 04:10:55;;;;;;;13.65;7.53;;;;;;;17.43;100.00;94515.19;5135042;27;20302;-74
2022/08/24 04:13:23;;;;;;;14.13;7.38;;;;;;;17.50;100.00;94526.22;5149452;27;20236;-75
2022/08/24 04:15:51;;;;;;;15.32;7.53;;;;;;;17.64;100.00;94526.41;5135318;27;20201;-74
2022/08/24 04:18:19;;;;;;;11.88;7.07;;;;;;;17.71;100.00;94526.50;5142613;27;20200;-73
2022/08/24 04:20:45;;;;;;;16.70;9.23;;;;;;;17.87;100.00;94525.50;5139275;27;20743;-75
2022/08/24 04:23:14;;;;;;;12.93;9.02;;;;;;;17.96;100.00;94531.44;5141278;27;20197;-74
2022/08/24 04:25:41;;;;;;;10.38;6.53;;;;;;;17.82;100.00;94531.31;5145962;27;20204;-76
2022/08/24 04:28:09;;;;;;;9.25;5.88;;;;;;;17.87;100.00;94522.75;5143825;27;20671;-74
2022/08/24 04:30:39;;;;;;;12.07;9.30;;;;;;;18.07;100.00;94532.34;5138989;27;20223;-74
2022/08/24 04:33:07;;;;;;;13.05;9.20;;;;;;;18.33;99.71;94523.16;5139672;27;20269;-74
2022/08/24 04:35:37;;;;;;;11.38;8.57;;;;;;;18.55;98.55;94529.63;5137943;27;20659;-74
2022/08/24 04:38:04;;;;;;;10.23;5.90;;;;;;;18.72;98.87;94531.75;5138964;27;20295;-74
2022/08/24 04:40:31;;;;;;;10.40;5.95;;;;;;;18.93;98.08;94529.13;5138400;27;20723;-74
2022/08/24 04:42:58;;;;;;;13.40;6.70;;;;;;;18.97;97.81;94529.94;5138740;27;20251;-74
2022/08/24 04:45:26;;;;;;;9.50;5.30;;;;;;;19.01;96.71;94518.97;5138551;27;20654;-75
2022/08/24 04:47:54;;;;;;;12.38;6.20;;;;;;;19.21;97.04;94527.72;5146747;27;20604;-75
2022/08/24 04:50:21;;;;;;;7.95;5.25;;;;;;;19.40;95.79;94530.19;5138551;27;20204;-74
2022/08/24 04:52:48;;;;;;;8.52;4.40;;;;;;;19.71;93.88;94525.97;5138115;27;20586;-74
2022/08/24 04:55:15;;;;;;;8.48;5.65;;;;;;;19.88;93.36;94533.50;5145014;27;20605;-74
2022/08/24 04:57:42;;;;;;;7.70;4.88;;;;;;;19.90;93.18;94520.16;5146095;27;20287;-74
2022/08/24 05:00:10;;;;;;;8.02;4.60;;;;;;;20.01;91.20;94520.16;5144667;27;20612;-74
2022/08/24 05:02:38;;;;;;;7.95;4.85;;;;;;;20.08;90.32;94520.97;5145159;27;20687;-74
2022/08/24 05:05:08;;;;;;;7.78;4.82;;;;;;;20.01;91.05;94525.66;5139634;27;20547;-74
2022/08/24 05:07:35;;;;;;;8.70;5.32;;;;;;;20.19;90.60;94515.50;5138130;27;20217;-74
2022/08/24 05:10:02;;;;;;;6.28;4.32;;;;;;;20.11;90.48;94519.38;5144180;27;20276;-74
2022/08/24 05:12:29;;;;;;;7.15;4.55;;;;;;;20.22;89.88;94520.22;5144976;27;20240;-74
2022/08/24 05:14:56;;;;;;;7.90;4.18;;;;;;;20.30;89.66;94524.53;5131464;27;20313;-74
2022/08/24 05:17:24;;;;;;;7.70;3.30;;;;;;;20.01;87.75;94514.66;5134736;27;20247;-74
2022/08/24 05:19:51;;;;;;;7.30;4.57;;;;;;;20.54;87.93;94514.72;5141083;27;20548;-73
2022/08/24 05:22:20;;;;;;;5.53;3.83;;;;;;;20.77;86.56;94517.09;5134630;27;20253;-72
2022/08/24 05:24:47;;;;;;;6.93;4.85;;;;;;;21.17;84.38;94513.88;5140727;27;20634;-73
2022/08/24 05:27:14;;;;;;;6.57;4.40;;;;;;;21.22;82.25;94505.22;5144999;27;20197;-73
2022/08/24 05:29:41;;;;;;;6.00;4.13;;;;;;;21.54;82.43;94512.59;5143050;27;20196;-74
2022/08/24 05:32:08;;;;;;;5.80;4.18;;;;;;;22.16;80.37;94517.38;5138039;27;20288;-73
2022/08/24 05:34:35;;;;;;;4.93;4.05;;;;;;;23.60;75.97;94499.94;5140179;27;20261;-73
2022/08/24 05:37:02;;;;;;;4.70;4.20;;;;;;;24.25;68.70;94497.88;5144854;27;20565;-73
2022/08/24 05:39:31;;;;;;;6.05;3.30;;;;;;;24.47;69.01;94492.78;5143268;27;20608;-73
2022/08/24 05:41:59;;;;;;;6.28;2.78;;;;;;;24.67;67.43;94494.44;5135916;27;20300;-73
2022/08/24 05:44:28;;;;;;;5.22;3.45;;;;;;;25.82;63.42;94485.59;5138918;27;20197;-74
2022/08/24 05:46:56;;;;;;;3.47;2.70;;;;;;;25.84;61.71;94483.16;5137625;27;20189;-73
2022/08/24 05:49:24;;;;;;;4.93;3.45;;;;;;;25.46;63.37;94480.72;5142570;27;20279;-73
2022/08/24 05:51:50;;;;;;;4.43;3.20;;;;;;;25.94;63.73;94495.25;5139940;27;20205;-73
2022/08/24 05:54:17;;;;;;;4.45;2.70;;;;;;;26.04;63.31;94492.25;5133944;27;20238;-73
2022/08/24 05:56:46;;;;;;;3.85;3.20;;;;;;;24.89;62.08;94500.38;5146421;27;20257;-73
2022/08/24 05:59:15;;;;;;;4.43;3.05;;;;;;;24.87;65.39;94504.81;5146725;27;20188;-74
2022/08/24 06:01:43;;;;;;;4.53;2.92;;;;;;;25.58;63.57;94495.16;5137334;27;20676;-74
2022/08/24 06:04:11;;;;;;;5.32;3.35;;;;;;;25.37;63.43;94491.63;5140789;27;20197;-72
2022/08/24 06:06:38;;;;;;;8.25;3.30;;;;;;;25.32;61.88;94492.09;5145735;27;20196;-73
2022/08/24 06:09:05;;;;;;;4.78;3.60;;;;;;;25.46;61.58;94496.59;5150670;27;20216;-73
2022/08/24 06:11:34;;;;;;;4.68;3.75;;;;;;;25.76;61.65;94498.41;5143620;27;20232;-73
2022/08/24 06:14:04;;;;;;;3.50;3.20;;;;;;;26.01;60.64;94498.66;5141606;27;20220;-73
2022/08/24 06:16:34;;;;;;;7.60;4.25;;;;;;;25.06;61.72;94504.09;5145569;27;20265;-74
2022/08/24 06:19:01;;;;;;;5.55;4.53;;;;;;;25.20;61.63;94498.28;5138074;27;20456;-73
2022/08/24 06:21:28;;;;;;;6.00;4.90;;;;;;;24.40;62.20;94499.22;5143562;27;20205;-72
2022/08/24 06:23:56;;;;;;;6.35;5.13;;;;;;;23.99;64.86;94497.44;5138046;27;20205;-71
2022/08/24 06:29:09;;;;;;;8.02;4.95;;;;;;;24.21;65.81;94508.19;5140785;27;20207;-73
2022/08/24 06:31:37;;;;;;;6.72;5.22;;;;;;;24.48;65.13;94502.66;5140905;27;20197;-72
2022/08/24 06:34:04;;;;;;;5.60;4.70;;;;;;;24.89;61.39;94507.91;5147632;27;20235;-72
2022/08/24 06:36:34;;;;;;;6.38;5.15;;;;;;;24.49;62.75;94499.47;5134787;27;20201;-71
2022/08/24 06:39:01;;;;;;;6.25;4.43;;;;;;;25.87;59.67;94493.41;5146949;27;20197;-72
2022/08/24 06:41:27;;;;;;;6.82;5.15;;;;;;;25.94;60.38;94503.59;5147578;27;20250;-72
2022/08/24 06:43:54;;;;;;;6.60;5.05;;;;;;;25.22;61.71;94498.66;5141464;27;20204;-72
2022/08/24 06:46:22;;;;;;;7.60;5.32;;;;;;;26.18;59.83;94497.47;5142112;27;20245;-72
2022/08/24 06:48:50;;;;;;;8.65;5.05;;;;;;;26.77;56.23;94499.28;5133959;27;20201;-72
2022/08/24 06:51:18;;;;;;;7.03;4.70;;;;;;;26.70;56.06;94493.91;5145713;27;21027;-71
2022/08/24 06:53:46;;;;;;;8.55;4.32;;;;;;;27.20;55.75;94509.34;5138996;27;20280;-72
2022/08/24 06:56:13;;;;;;;8.02;4.95;;;;;;;27.09;53.74;94506.06;5147180;27;20210;-71
2022/08/24 06:58:40;;;;;;;4.97;4.07;;;;;;;28.55;52.99;94505.50;5133766;27;20240;-71
2022/08/24 07:01:12;;;;;;;5.82;5.05;;;;;;;27.14;55.83;94516.66;5150757;27;20247;-71
2022/08/24 07:03:40;;;;;;;4.68;4.28;;;;;;;27.18;54.23;94520.13;5142871;27;20197;-71
2022/08/24 07:06:08;;;;;;;5.70;4.18;;;;;;;26.94;55.92;94524.31;5147585;27;20197;-71
2022/08/24 07:08:36;;;;;;;6.85;4.95;;;;;;;27.44;54.54;94518.25;5144790;27;20560;-70
2022/08/24 07:11:03;;;;;;;7.72;5.57;;;;;;;27.20;54.36;94523.25;5139955;27;20204;-70
2022/08/24 07:13:30;;;;;;;9.38;5.18;;;;;;;27.74;53.47;94509.50;5141017;27;20216;-70
2022/08/24 07:15:58;;;;;;;7.63;5.57;;;;;;;28.88;51.75;94508.81;5147123;27;20557;-72
2022/08/24 07:18:25;;;;;;;8.57;4.50;;;;;;;29.46;49.89;94523.22;5144834;27;20196;-71
2022/08/24 07:20:53;;;;;;;8.57;5.32;;;;;;;28.95;49.42;94523.34;5139473;27;20200;-71
2022/08/24 07:23:21;;;;;;;7.32;4.72;;;;;;;28.97;50.06;94525.69;5141363;27;20228;-71
2022/08/24 07:25:48;;;;;;;6.22;4.85;;;;;;;28.09;52.43;94532.72;5146732;27;20208;-72
2022/08/24 07:28:16;;;;;;;6.10;4.45;;;;;;;26.52;54.99;94538.00;5144541;27;20200;-72
2022/08/24 07:30:43;;;;;;;4.60;4.05;;;;;;;27.02;53.01;94539.63;5138948;27;20204;-72
2022/08/24 07:33:10;;;;;;;6.18;4.22;;;;;;;27.40;53.66;94534.25;5140566;27;20297;-73
2022/08/24 07:35:38;;;;;;;5.22;4.07;;;;;;;26.99;54.60;94537.72;5146552;27;20200;-72
2022/08/24 07:38:07;;;;;;;7.00;4.78;;;;;;;27.10;55.02;94539.00;5132755;27;20217;-72
2022/08/24 07:40:35;;;;;;;6.45;4.72;;;;;;;27.71;53.54;94531.84;5146771;27;20262;-71
2022/08/24 07:43:02;;;;;;;5.85;3.72;;;;;;;26.40;55.14;94530.34;5145808;27;20738;-72
2022/08/24 07:45:29;;;;;;;5.38;4.28;;;;;;;26.21;55.95;94534.72;5139008;27;20281;-71
2022/08/24 07:47:56;;;;;;;4.53;3.67;;;;;;;27.12;54.07;94535.78;5138020;27;20670;-71
2022/08/24 07:50:23;;;;;;;4.90;3.90;;;;;;;27.97;50.81;94527.91;5139652;27;20243;-71
2022/08/24 07:52:51;;;;;;;5.07;3.88;;;;;;;28.78;48.91;94519.09;5150032;27;20273;-73
2022/08/24 07:55:19;;;;;;;4.68;3.80;;;;;;;27.37;51.57;94527.56;5138267;27;20291;-71
2022/08/24 07:57:46;;;;;;;4.38;3.83;;;;;;;28.53;49.44;94519.09;5138138;27;20205;-71
2022/08/24 08:00:15;;;;;;;4.32;3.60;;;;;;;28.17;49.86;94514.56;5144698;27;20205;-71
2022/08/24 08:02:45;;;;;;;5.07;3.50;;;;;;;29.02;47.86;94507.56;5133069;27;20643;-71
2022/08/24 08:05:12;;;;;;;5.10;3.35;;;;;;;29.18;48.19;94504.63;5144035;27;20200;-71
2022/08/24 08:07:39;;;;;;;4.78;3.38;;;;;;;28.37;47.41;94510.84;5146539;27;20227;-70
2022/08/24 08:10:07;;;;;;;6.28;3.45;;;;;;;28.64;48.33;94508.38;5141273;27;20200;-70
2022/08/24 08:12:35;;;;;;;5.25;3.78;;;;;;;29.46;48.47;94498.09;5138879;27;20233;-70
2022/08/24 08:15:02;;;;;;;4.88;3.58;;;;;;;29.34;47.68;94494.09;5132114;27;20644;-71
2022/08/24 08:17:29;;;;;;;5.00;3.78;;;;;;;29.00;48.85;94494.84;5146140;27;20667;-71
2022/08/24 08:19:56;;;;;;;4.07;3.50;;;;;;;28.09;50.16;94501.31;5143054;27;20210;-71
2022/08/24 08:25:07;;;;;;;5.68;3.90;;;;;;;27.81;50.98;94503.72;5139107;27;20195;-71
2022/08/24 08:27:36;;;;;;;5.07;4.15;;;;;;;27.21;53.46;94510.91;5145152;27;20208;-71
2022/08/24 08:30:05;;;;;;;4.63;3.92;;;;;;;26.63;54.71;94513.53;5146056;27;20203;-71
2022/08/24 08:32:32;;;;;;;5.32;4.05;;;;;;;26.33;56.03;94513.84;5138992;27;20196;-70
2022/08/24 08:34:59;;;;;;;5.25;4.28;;;;;;;27.46;53.79;94505.47;5138087;27;20579;-71
2022/08/24 08:37:26;;;;;;;7.53;4.38;;;;;;;28.40;52.79;94494.03;5144683;27;20245;-71
2022/08/24 08:39:54;;;;;;;6.97;4.10;;;;;;;28.28;52.24;94503.94;5132925;27;20269;-70
2022/08/24 08:42:45;;;;;;;4.72;3.95;;;;;;;27.96;51.80;94498.50;5144509;27;20208;-70
2022/08/24 08:45:47;;;;;;;7.18;4.03;;;;;;;28.09;51.90;94502.09;5145773;27;20201;-70
2022/08/24 08:48:50;;;;;;;6.22;4.05;;;;;;;28.25;51.27;94504.03;5145536;27;20604;-70
2022/08/24 08:51:51;;;;;;;5.28;3.63;;;;;;;28.64;50.27;94488.88;5145789;27;20191;-69
2022/08/24 08:54:30;;;;;;;4.45;3.70;;;;;;;29.11;49.56;94500.06;5130769;27;20302;-70
2022/08/24 08:57:26;;;;;;;4.20;3.80;;;;;;;29.08;49.10;94503.00;5139363;27;20188;-71
2022/08/24 09:00:09;;;;;;;4.85;3.55;;;;;;;29.83;47.65;94495.56;5138071;27;20184;-71
2022/08/24 09:02:55;;;;;;;4.57;3.60;;;;;;;30.11;46.72;94494.53;5138386;27;20634;-71
2022/08/24 09:05:48;;;;;;;5.53;3.60;;;;;;;29.81;46.82;94492.44;5141916;27;20663;-71
2022/08/24 09:08:27;;;;;;;5.38;3.13;;;;;;;28.84;48.66;94506.16;5138704;27;20218;-70
2022/08/24 09:11:01;;;;;;;4.65;3.22;;;;;;;27.88;49.56;94513.88;5138585;27;20192;-71
2022/08/24 09:13:42;;;;;;;4.07;3.10;;;;;;;27.97;49.27;94502.84;5141686;27;20213;-71
2022/08/24 09:16:26;;;;;;;3.33;2.95;;;;;;;27.55;50.08;94508.38;5145177;27;20285;-71
2022/08/24 09:19:12;;;;;;;3.90;2.97;;;;;;;27.42;50.43;94518.69;5145755;27;20213;-70
2022/08/24 09:21:52;;;;;;;5.60;3.20;;;;;;;27.37;50.60;94508.09;5143033;27;20236;-71
2022/08/24 09:24:35;;;;;;;4.00;3.22;;;;;;;27.27;51.27;94514.72;5137941;27;20200;-70
2022/08/24 09:27:16;;;;;;;3.30;3.00;;;;;;;27.17;51.62;94513.78;5137863;27;20215;-71
2022/08/24 09:29:59;;;;;;;4.60;3.53;;;;;;;27.08;52.46;94512.84;5140516;27;20184;-71
2022/08/24 09:32:46;;;;;;;5.25;3.80;;;;;;;26.57;53.14;94501.38;5145308;27;20189;-71
2022/08/24 09:35:15;;;;;;;4.32;3.38;;;;;;;26.71;53.45;94501.03;5149256;27;20743;-71
2022/08/24 09:37:58;;;;;;;4.20;3.65;;;;;;;27.06;52.50;94493.78;5135304;27;20251;-71
2022/08/24 09:40:36;;;;;;;4.70;3.80;;;;;;;27.86;53.14;94485.69;5149234;27;20515;-71
2022/08/24 09:43:30;;;;;;;4.10;3.70;;;;;;;27.97;50.03;94477.78;5149253;27;20245;-71
2022/08/24 09:46:30;;;;;;;5.45;3.40;;;;;;;28.64;49.06;94474.94;5143796;27;20189;-71
2022/08/24 09:49:33;;;;;;;5.10;3.67;;;;;;;29.15;48.17;94470.03;5109871;27;20200;-71
2022/08/24 09:52:17;;;;;;;6.03;3.60;;;;;;;29.20;46.58;94466.69;5142877;27;20283;-71
2022/08/24 09:55:16;;;;;;;3.88;3.47;;;;;;;28.99;48.54;94462.59;5141805;27;20220;-71
2022/08/24 09:58:01;;;;;;;4.75;3.88;;;;;;;28.77;47.32;94464.53;5133618;27;20219;-71
2022/08/24 10:00:33;;;;;;;3.95;3.50;;;;;;;28.35;45.47;94451.97;5144798;27;20197;-70
2022/08/24 10:03:08;;;;;;;4.38;3.80;;;;;;;27.97;48.16;94446.38;5141007;27;20192;-70
2022/08/24 10:06:00;;;;;;;5.00;3.83;;;;;;;27.55;48.07;94457.50;5142398;27;20269;-71
2022/08/24 10:08:39;;;;;;;5.07;3.53;;;;;;;27.17;48.90;94454.59;5144551;27;20697;-70
2022/08/24 10:11:13;;;;;;;4.72;3.20;;;;;;;26.99;51.93;94449.50;5141642;27;20196;-70
2022/08/24 10:13:50;;;;;;;8.32;3.63;;;;;;;26.80;51.79;94453.94;5142756;27;20228;-69
2022/08/24 10:16:32;;;;;;;6.05;3.80;;;;;;;26.77;50.49;94442.91;5142442;27;20666;-72
2022/08/24 10:19:10;;;;;;;5.93;4.03;;;;;;;27.00;50.23;94439.16;5141454;27;20200;-71
2022/08/24 10:21:56;;;;;;;5.60;3.78;;;;;;;27.34;50.61;94430.28;5143875;27;20189;-71
2022/08/24 10:24:53;;;;;;;4.57;3.40;;;;;;;27.31;49.23;94426.38;5141879;27;20188;-70
2022/08/24 10:27:33;;;;;;;5.97;3.63;;;;;;;27.45;51.05;94431.56;5134785;27;20200;-70
2022/08/24 10:30:35;;;;;;;3.92;3.30;;;;;;;27.66;48.63;94429.38;5148226;27;20196;-71
2022/08/24 10:33:14;;;;;;;5.00;3.50;;;;;;;27.52;48.62;94436.91;5138942;27;20268;-71
2022/08/24 10:36:03;;;;;;;5.30;3.60;;;;;;;27.25;49.78;94428.91;5141337;27;20244;-71
2022/08/24 10:45:27;;;;;;;4.18;3.63;;;;;;;28.18;46.49;94421.44;5051831;28;20214;-72
2022/08/24 10:48:18;;;;;;;5.00;3.58;;;;;;;27.93;48.32;94427.75;5065039;28;20638;-71
2022/08/24 10:50:56;;;;;;;5.15;3.40;;;;;;;27.72;47.53;94428.41;5135503;27;20204;-71
2022/08/24 10:53:26;;;;;;;5.38;3.60;;;;;;;28.06;47.75;94430.56;5140591;27;20184;-71
2022/08/24 10:56:10;;;;;;;6.65;3.88;;;;;;;27.78;49.00;94432.19;5141674;27;20686;-71
2022/08/24 10:59:02;;;;;;;6.43;3.28;;;;;;;27.98;49.08;94434.78;5142008;27;20192;-71
2022/08/24 11:01:32;;;;;;;4.70;3.30;;;;;;;27.97;47.65;94424.09;5140820;27;20238;-71
2022/08/24 11:04:03;;;;;;;5.80;3.80;;;;;;;27.44;49.16;94430.00;5140950;27;20257;-72
2022/08/24 11:06:32;;;;;;;5.60;3.42;;;;;;;28.41;48.68;94425.13;5140276;27;20223;-71
2022/08/24 11:09:03;;;;;;;3.97;3.53;;;;;;;28.97;46.04;94409.28;5139566;27;20647;-71
2022/08/24 11:11:35;;;;;;;3.60;3.30;;;;;;;29.93;43.77;94407.81;5141162;27;20251;-72
2022/08/24 11:14:04;;;;;;;4.45;3.80;;;;;;;29.48;45.13;94409.09;5147541;27;20234;-73
2022/08/24 11:16:34;;;;;;;4.25;3.33;;;;;;;29.20;46.12;94402.50;5143347;27;20227;-70
2022/08/24 11:19:04;;;;;;;3.90;3.53;;;;;;;28.53;48.85;94416.75;5140255;27;20256;-71
2022/08/24 11:21:50;;;;;;;4.18;3.60;;;;;;;27.76;48.99;94411.59;5143612;27;20236;-71
2022/08/24 11:24:38;;;;;;;6.65;3.80;;;;;;;27.65;50.29;94411.13;5147169;27;20614;-71
2022/08/24 11:27:09;;;;;;;5.10;3.67;;;;;;;27.44;50.46;94424.44;5147475;27;20342;-71
2022/08/24 11:30:08;;;;;;;6.90;4.10;;;;;;;27.49;51.42;94404.38;5142571;27;20703;-71
2022/08/24 11:32:42;;;;;;;6.55;4.07;;;;;;;27.20;50.41;94414.75;5076652;27;20197;-71
2022/08/24 11:35:17;;;;;;;4.10;3.70;;;;;;;26.45;51.03;94413.94;5132621;27;20216;-70
2022/08/24 11:37:44;;;;;;;6.05;4.30;;;;;;;26.83;51.91;94408.56;5133171;27;20196;-71
2022/08/24 11:40:13;;;;;;;7.47;4.03;;;;;;;27.46;49.68;94399.72;5133366;27;20249;-71
2022/08/24 11:43:05;;;;;;;5.25;3.90;;;;;;;28.16;48.56;94400.78;5133119;27;20201;-71
2022/08/24 11:45:36;;;;;;;6.40;3.72;;;;;;;27.82;49.91;94404.25;5140723;27;20207;-71
2022/08/24 11:48:15;;;;;;;4.70;3.70;;;;;;;27.52;50.14;94397.94;5147280;27;20192;-71
2022/08/24 11:50:48;;;;;;;4.32;3.53;;;;;;;27.02;52.10;94398.59;5142368;27;20192;-72
2022/08/24 11:53:28;;;;;;;6.40;3.67;;;;;;;27.15;51.57;94406.97;5135847;27;20201;-71
2022/08/24 11:56:04;;;;;;;6.97;3.65;;;;;;;27.06;52.71;94392.94;5131591;27;20356;-71
2022/08/24 11:58:43;;;;;;;6.63;3.40;;;;;;;27.24;53.26;94399.53;5139403;27;20196;-71
2022/08/24 12:01:17;;;;;;;4.40;3.47;;;;;;;27.00;54.38;94401.00;5139555;27;20241;-71
2022/08/24 12:03:57;;;;;;;9.15;3.60;;;;;;;27.27;53.98;94397.88;5142975;27;20291;-72